Pagina principale
METAR-TAF:

METAR-TAF

Aeroporti :

Cherbourg, Francia

latitudine: 49-39N, longitudine: 001-28W, altezza: 138 m

Osservazione

Il bollettino è stato emesso 39 minuti fa, alle 09:30 UTC
Vento 7 kt da nord-ovest, variando fra ovest/nord-ovest e nord
Temperature 13°C
Umidità 77%
Pressione 1010 hPa
Visibilità 10 km o più
Nubi sparse ad un'altezza di 1400 ft
Nuvoloso ad un'altezza di 6600 ft

METAR: LFRC 070930Z AUTO 32007KT 290V360 9999 SCT014 BKN066 13/09 Q1010

Ora: 12:09 (10:09 UTC)


TAF: mancante

Osservazioni e previsioni meteorologiche di più di 4000 aeroporti (messaggi METAR e TAF).

Le stazioni disponibili sono rappresentate dai dischi gialli e rossi sulla carta.

Puntare il mouse per vedere il nome della stazione.

Clicca sopra per visualizzare le osservazioni e previsioni meteorologiche.

Per cambiare la mappa : fare clic sui pulsanti verdi con una croce nera per ingrandire, il pulsante verde con un trattino per diminuire, o sulla freccia verde per le mappe adiacenti.


METAR-TAF: